Time;durP1;ratioP1;P1;durP2;ratioP2;P2;SDS_P1;SDS_P2;PMS_P1;PMS_P2;Temp;Humidity;BMP_temperature;BMP_pressure;BME280_temperature;BME280_humidity;BME280_pressure;Samples;Min_cycle;Max_cycle;Signal;HPM_P1;HPM_P2
2024/04/13 00:02:00;;;;;;;7.93;4.67;;;;;;;;;;5424739;26;20707;-83
2024/04/13 00:05:10;;;;;;;11.10;5.83;;;;;;;;;;5401656;26;20222;-83
2024/04/13 00:08:16;;;;;;;10.93;5.03;;;;;;;;;;5423040;26;20782;-83
2024/04/13 00:11:20;;;;;;;8.43;5.37;;;;;;;;;;5424174;26;20214;-83
2024/04/13 00:14:25;;;;;;;9.23;5.40;;;;;;;;;;5421801;26;20214;-83
2024/04/13 00:17:31;;;;;;;6.53;5.30;;;;;;;;;;5421898;26;20285;-83
2024/04/13 00:20:35;;;;;;;10.03;5.77;;;;;;;;;;5422603;26;20230;-83
2024/04/13 00:23:39;;;;;;;7.13;5.50;;;;;;;;;;5423930;26;20222;-83
2024/04/13 00:26:43;;;;;;;6.20;4.80;;;;;;;;;;5423193;26;20270;-83
2024/04/13 00:29:48;;;;;;;7.23;4.87;;;;;;;;;;5402489;26;20227;-83
2024/04/13 00:32:52;;;;;;;7.27;5.87;;;;;;;;;;5402768;26;20273;-83
2024/04/13 00:35:59;;;;;;;8.97;4.50;;;;;;;;;;5422551;26;20274;-83
2024/04/13 00:39:04;;;;;;;9.30;4.87;;;;;;;;;;5423463;26;20214;-83
2024/04/13 00:42:08;;;;;;;7.90;4.77;;;;;;;;;;5422211;26;20261;-83
2024/04/13 00:45:13;;;;;;;8.87;5.27;;;;;;;;;;5424041;26;20218;-83
2024/04/13 00:48:24;;;;;;;7.33;4.50;;;;;;;;;;5423295;26;20278;-83
2024/04/13 00:51:33;;;;;;;5.50;4.77;;;;;;;;;;5423086;26;20218;-82
2024/04/13 00:54:39;;;;;;;6.53;4.73;;;;;;;;;;5423400;26;20223;-83
2024/04/13 00:57:43;;;;;;;6.40;4.80;;;;;;;;;;5422646;26;20281;-83
2024/04/13 01:00:48;;;;;;;6.80;4.80;;;;;;;;;;5422295;26;20281;-83
2024/04/13 01:03:52;;;;;;;9.00;4.33;;;;;;;;;;5421532;26;20277;-83
2024/04/13 01:06:57;;;;;;;8.17;4.30;;;;;;;;;;5400507;26;20625;-83
2024/04/13 01:10:01;;;;;;;5.60;5.07;;;;;;;;;;5420383;26;20278;-83
2024/04/13 01:13:08;;;;;;;6.57;5.10;;;;;;;;;;5421094;26;20215;-83
2024/04/13 01:16:14;;;;;;;6.43;4.57;;;;;;;;;;5421294;26;20235;-83
2024/04/13 01:19:18;;;;;;;6.70;4.77;;;;;;;;;;5420607;26;20281;-83
2024/04/13 01:22:23;;;;;;;7.53;4.97;;;;;;;;;;5421376;26;20222;-83
2024/04/13 01:25:27;;;;;;;7.93;5.57;;;;;;;;;;5400787;26;20219;-83
2024/04/13 01:28:33;;;;;;;6.33;5.50;;;;;;;;;;5421600;26;20627;-83
2024/04/13 01:31:38;;;;;;;8.10;5.33;;;;;;;;;;5421347;26;20722;-83
2024/04/13 01:34:42;;;;;;;7.70;5.03;;;;;;;;;;5421047;26;20273;-83
2024/04/13 01:37:46;;;;;;;7.07;5.20;;;;;;;;;;5421532;26;20274;-83
2024/04/13 01:40:51;;;;;;;6.03;5.30;;;;;;;;;;5421661;26;20706;-83
2024/04/13 01:43:56;;;;;;;6.40;5.10;;;;;;;;;;5421594;26;20623;-83
2024/04/13 01:47:01;;;;;;;7.50;5.40;;;;;;;;;;5421990;26;20274;-83
2024/04/13 01:50:05;;;;;;;6.87;5.60;;;;;;;;;;5421307;26;20227;-83
2024/04/13 01:53:09;;;;;;;9.43;5.07;;;;;;;;;;5421389;26;20219;-82
2024/04/13 01:56:14;;;;;;;8.87;5.63;;;;;;;;;;5421815;26;20274;-83
2024/04/13 01:59:19;;;;;;;7.97;5.80;;;;;;;;;;5421826;26;20258;-83
2024/04/13 02:02:24;;;;;;;7.67;5.07;;;;;;;;;;5421525;26;20222;-83
2024/04/13 02:05:28;;;;;;;5.97;5.37;;;;;;;;;;5421940;26;20214;-85
2024/04/13 02:08:33;;;;;;;7.80;5.97;;;;;;;;;;5421084;26;20226;-85
2024/04/13 02:11:37;;;;;;;8.67;5.40;;;;;;;;;;5420990;26;20567;-85
2024/04/13 02:14:42;;;;;;;7.87;5.27;;;;;;;;;;5421438;26;20226;-86
2024/04/13 02:17:46;;;;;;;8.63;5.67;;;;;;;;;;5421773;26;20290;-85
2024/04/13 02:20:50;;;;;;;7.40;5.50;;;;;;;;;;5421614;26;20226;-85
2024/04/13 02:23:54;;;;;;;7.67;5.50;;;;;;;;;;5422100;26;20219;-85
2024/04/13 02:26:58;;;;;;;6.20;5.37;;;;;;;;;;5421462;26;20763;-85
2024/04/13 02:30:03;;;;;;;12.10;5.23;;;;;;;;;;5421039;26;20226;-85
2024/04/13 02:33:08;;;;;;;10.07;5.80;;;;;;;;;;5421049;26;20266;-86
2024/04/13 02:36:13;;;;;;;10.13;6.13;;;;;;;;;;5420021;26;20214;-85
2024/04/13 02:39:18;;;;;;;7.73;6.03;;;;;;;;;;5419747;26;20223;-85
2024/04/13 02:42:23;;;;;;;9.77;6.07;;;;;;;;;;5419888;26;20265;-85
2024/04/13 02:45:27;;;;;;;10.43;6.57;;;;;;;;;;5421042;26;20222;-85
2024/04/13 02:48:33;;;;;;;9.80;6.57;;;;;;;;;;5421443;26;20615;-85
2024/04/13 02:51:37;;;;;;;6.80;6.10;;;;;;;;;;5421193;26;20781;-86
2024/04/13 02:54:41;;;;;;;8.80;6.37;;;;;;;;;;5419761;26;20218;-85
2024/04/13 02:57:45;;;;;;;8.87;6.60;;;;;;;;;;5420342;26;20297;-85
2024/04/13 03:00:54;;;;;;;11.63;7.57;;;;;;;;;;5418831;26;20218;-86
2024/04/13 03:03:58;;;;;;;10.60;6.87;;;;;;;;;;5419304;26;20775;-85
2024/04/13 03:07:03;;;;;;;10.23;7.13;;;;;;;;;;5418759;26;20269;-85
2024/04/13 03:10:07;;;;;;;10.83;7.20;;;;;;;;;;5420470;26;20293;-85
2024/04/13 03:13:11;;;;;;;11.37;7.53;;;;;;;;;;5420820;26;20274;-85
2024/04/13 03:16:15;;;;;;;9.53;7.77;;;;;;;;;;5418554;26;20222;-85
2024/04/13 03:19:20;;;;;;;12.10;7.80;;;;;;;;;;5419643;26;20273;-85
2024/04/13 03:22:24;;;;;;;8.03;7.23;;;;;;;;;;5419264;26;20219;-85
2024/04/13 03:25:28;;;;;;;10.83;7.53;;;;;;;;;;5418572;26;20222;-85
2024/04/13 03:28:33;;;;;;;8.87;7.37;;;;;;;;;;5420163;26;20273;-85
2024/04/13 03:31:38;;;;;;;10.63;7.37;;;;;;;;;;5420336;26;20218;-85
2024/04/13 03:34:42;;;;;;;9.67;8.00;;;;;;;;;;5419649;26;20273;-85
2024/04/13 03:37:46;;;;;;;8.80;7.47;;;;;;;;;;5420107;26;20282;-85
2024/04/13 03:41:02;;;;;;;8.40;7.57;;;;;;;;;;5420110;26;20226;-85
2024/04/13 03:44:07;;;;;;;11.17;7.83;;;;;;;;;;5420608;26;20214;-85
2024/04/13 03:47:13;;;;;;;10.83;7.70;;;;;;;;;;5418515;26;20266;-85
2024/04/13 03:50:18;;;;;;;11.23;8.03;;;;;;;;;;5420449;26;20208;-85
2024/04/13 03:53:23;;;;;;;10.03;8.10;;;;;;;;;;5419798;26;20226;-85
2024/04/13 03:56:27;;;;;;;10.73;8.30;;;;;;;;;;5420191;26;20298;-85
2024/04/13 03:59:31;;;;;;;9.00;7.80;;;;;;;;;;5419813;26;20214;-85
2024/04/13 04:02:36;;;;;;;10.13;7.60;;;;;;;;;;5419411;26;20219;-85
2024/04/13 04:05:40;;;;;;;12.20;7.93;;;;;;;;;;5397831;26;20290;-85
2024/04/13 04:08:46;;;;;;;11.07;7.90;;;;;;;;;;5418340;26;20218;-85
2024/04/13 04:11:51;;;;;;;12.10;8.33;;;;;;;;;;5418151;26;20273;-85
2024/04/13 04:14:55;;;;;;;12.80;8.43;;;;;;;;;;5418805;26;20219;-85
2024/04/13 04:18:00;;;;;;;10.00;8.10;;;;;;;;;;5422743;26;20281;-86
2024/04/13 04:21:04;;;;;;;10.10;7.97;;;;;;;;;;5424183;26;20709;-85
2024/04/13 04:24:09;;;;;;;12.77;8.87;;;;;;;;;;5423193;26;20219;-85
2024/04/13 04:27:13;;;;;;;11.13;8.93;;;;;;;;;;5402242;26;20269;-85
2024/04/13 04:30:18;;;;;;;10.20;8.53;;;;;;;;;;5423796;26;20223;-85
2024/04/13 04:33:22;;;;;;;13.10;9.30;;;;;;;;;;5423412;26;20289;-85
2024/04/13 04:36:26;;;;;;;11.43;8.67;;;;;;;;;;5422246;26;20269;-84
2024/04/13 04:39:31;;;;;;;11.57;9.23;;;;;;;;;;5423137;26;20201;-85
2024/04/13 04:42:36;;;;;;;11.07;9.30;;;;;;;;;;5421140;26;20270;-85
2024/04/13 04:45:40;;;;;;;13.47;9.50;;;;;;;;;;5421913;26;20595;-85
2024/04/13 04:48:50;;;;;;;12.80;8.47;;;;;;;;;;5421423;26;20790;-85
2024/04/13 04:51:54;;;;;;;11.43;9.20;;;;;;;;;;5423140;26;20223;-85
2024/04/13 04:55:01;;;;;;;14.03;9.27;;;;;;;;;;5422969;26;20285;-85
2024/04/13 04:58:06;;;;;;;12.50;8.83;;;;;;;;;;5421567;26;20630;-84
2024/04/13 05:01:10;;;;;;;12.73;9.17;;;;;;;;;;5421045;26;20285;-85
2024/04/13 05:04:14;;;;;;;13.27;9.03;;;;;;;;;;5421884;26;20265;-85
2024/04/13 05:07:19;;;;;;;13.30;9.90;;;;;;;;;;5421921;26;20281;-85
2024/04/13 05:10:23;;;;;;;10.50;8.33;;;;;;;;;;5421560;26;20258;-85
2024/04/13 05:13:29;;;;;;;13.63;9.93;;;;;;;;;;5421790;26;20272;-85
2024/04/13 05:16:34;;;;;;;28.33;18.87;;;;;;;;;;5421495;26;20261;-85
2024/04/13 05:19:38;;;;;;;22.67;16.10;;;;;;;;;;5400009;26;20277;-85
2024/04/13 05:22:43;;;;;;;19.40;12.77;;;;;;;;;;5422039;26;20211;-85
2024/04/13 05:25:47;;;;;;;12.53;10.10;;;;;;;;;;5421933;26;20205;-85
2024/04/13 05:28:52;;;;;;;18.63;9.37;;;;;;;;;;5421176;26;20281;-85
2024/04/13 05:31:56;;;;;;;10.53;9.17;;;;;;;;;;5422518;26;20265;-85
2024/04/13 05:35:00;;;;;;;14.40;9.50;;;;;;;;;;5421321;26;20218;-85
2024/04/13 05:38:05;;;;;;;10.07;8.60;;;;;;;;;;5421785;26;20623;-86
2024/04/13 05:41:10;;;;;;;10.80;8.70;;;;;;;;;;5421339;26;20266;-85
2024/04/13 05:44:14;;;;;;;11.10;9.47;;;;;;;;;;5421447;26;20214;-85
2024/04/13 05:47:18;;;;;;;11.37;9.20;;;;;;;;;;5420984;26;20270;-85
2024/04/13 05:50:23;;;;;;;12.67;9.90;;;;;;;;;;5421306;26;20226;-86
2024/04/13 05:53:27;;;;;;;13.57;9.97;;;;;;;;;;5421702;26;20226;-85
2024/04/13 05:56:31;;;;;;;12.27;9.80;;;;;;;;;;5420188;26;20282;-85
2024/04/13 05:59:36;;;;;;;14.27;10.13;;;;;;;;;;5421319;26;20219;-86
2024/04/13 06:02:40;;;;;;;17.00;10.63;;;;;;;;;;5420912;26;20572;-85
2024/04/13 06:05:46;;;;;;;18.47;12.70;;;;;;;;;;5420800;26;20281;-85
2024/04/13 06:08:50;;;;;;;16.97;11.10;;;;;;;;;;5420482;26;20281;-86
2024/04/13 06:11:56;;;;;;;22.23;12.10;;;;;;;;;;5419486;26;20273;-86
2024/04/13 06:15:00;;;;;;;19.33;11.77;;;;;;;;;;5421298;26;20218;-86
2024/04/13 06:18:05;;;;;;;20.17;11.07;;;;;;;;;;5419890;26;20272;-86
2024/04/13 06:21:09;;;;;;;17.63;10.23;;;;;;;;;;5419788;26;20222;-86
2024/04/13 06:24:13;;;;;;;12.63;9.40;;;;;;;;;;5421437;26;20218;-85
2024/04/13 06:27:18;;;;;;;12.27;9.23;;;;;;;;;;5421830;26;20264;-85
2024/04/13 06:30:25;;;;;;;12.40;9.40;;;;;;;;;;5419474;26;20219;-87
2024/04/13 06:33:29;;;;;;;13.27;9.80;;;;;;;;;;5419367;26;20257;-85
2024/04/13 06:36:33;;;;;;;13.23;9.10;;;;;;;;;;5420685;26;20280;-85
2024/04/13 06:39:37;;;;;;;11.63;9.50;;;;;;;;;;5419419;26;20218;-85
2024/04/13 06:42:42;;;;;;;11.67;9.33;;;;;;;;;;5418682;26;20262;-85
2024/04/13 06:45:47;;;;;;;9.97;8.97;;;;;;;;;;5420055;26;20200;-86
2024/04/13 06:48:51;;;;;;;12.03;9.10;;;;;;;;;;5419378;26;20269;-85
2024/04/13 06:51:55;;;;;;;14.73;9.63;;;;;;;;;;5418867;26;20222;-86
2024/04/13 06:55:00;;;;;;;16.43;12.93;;;;;;;;;;5419134;26;20230;-85
2024/04/13 06:58:04;;;;;;;13.77;11.63;;;;;;;;;;5418681;26;20300;-87
2024/04/13 07:01:09;;;;;;;12.20;9.90;;;;;;;;;;5377657;26;20276;-86
2024/04/13 07:04:13;;;;;;;13.03;9.90;;;;;;;;;;5423171;26;20610;-87
2024/04/13 07:07:17;;;;;;;13.37;11.20;;;;;;;;;;5398529;26;20615;-88
2024/04/13 07:10:22;;;;;;;16.63;9.87;;;;;;;;;;5419988;26;20769;-85
2024/04/13 07:13:27;;;;;;;15.07;10.60;;;;;;;;;;5420335;26;20269;-86
2024/04/13 07:16:32;;;;;;;18.80;10.80;;;;;;;;;;5419784;26;20631;-86
2024/04/13 07:19:37;;;;;;;15.70;11.07;;;;;;;;;;5419803;26;20269;-84
2024/04/13 07:22:41;;;;;;;12.23;10.07;;;;;;;;;;5420098;26;20221;-85
2024/04/13 07:25:45;;;;;;;13.37;11.23;;;;;;;;;;5419743;26;20210;-85
2024/04/13 07:28:49;;;;;;;14.63;10.83;;;;;;;;;;5418764;26;20292;-84
2024/04/13 07:31:53;;;;;;;12.87;10.97;;;;;;;;;;5419568;26;20225;-83
2024/04/13 07:34:57;;;;;;;13.53;11.03;;;;;;;;;;5419557;26;20226;-81
2024/04/13 07:38:02;;;;;;;14.07;10.77;;;;;;;;;;5419634;26;20289;-83
2024/04/13 07:41:06;;;;;;;15.07;11.10;;;;;;;;;;5420439;26;20242;-83
2024/04/13 07:44:11;;;;;;;12.80;10.93;;;;;;;;;;5419745;26;20229;-84
2024/04/13 07:47:16;;;;;;;14.47;10.93;;;;;;;;;;5417543;26;20280;-82
2024/04/13 07:50:20;;;;;;;14.63;10.70;;;;;;;;;;5419085;26;20218;-82
2024/04/13 07:53:25;;;;;;;12.00;10.10;;;;;;;;;;5422111;26;20218;-83
2024/04/13 07:56:29;;;;;;;15.53;12.93;;;;;;;;;;5423134;26;20281;-83
2024/04/13 07:59:33;;;;;;;15.70;10.77;;;;;;;;;;5423239;26;20218;-83
2024/04/13 08:02:37;;;;;;;12.07;8.93;;;;;;;;;;5423063;26;20207;-83
2024/04/13 08:05:42;;;;;;;11.83;9.20;;;;;;;;;;5421767;26;20325;-80
2024/04/13 08:08:47;;;;;;;10.63;9.10;;;;;;;;;;5422975;26;20774;-80
2024/04/13 08:11:52;;;;;;;13.23;10.03;;;;;;;;;;5421592;26;20230;-80
2024/04/13 08:14:56;;;;;;;14.63;9.70;;;;;;;;;;5421505;26;20217;-80
2024/04/13 08:18:00;;;;;;;11.63;9.27;;;;;;;;;;5422610;26;20285;-81
2024/04/13 08:21:04;;;;;;;14.17;8.67;;;;;;;;;;5422668;26;20217;-81
2024/04/13 08:24:09;;;;;;;12.60;8.37;;;;;;;;;;5423022;26;20211;-81
2024/04/13 08:27:13;;;;;;;11.40;9.30;;;;;;;;;;5422704;26;20261;-81
2024/04/13 08:30:17;;;;;;;11.07;8.93;;;;;;;;;;5422604;26;20568;-81
2024/04/13 08:33:22;;;;;;;11.07;7.97;;;;;;;;;;5421444;26;20266;-81
2024/04/13 08:36:28;;;;;;;11.10;8.50;;;;;;;;;;5422528;26;20219;-81
2024/04/13 08:39:35;;;;;;;10.20;7.87;;;;;;;;;;5424154;26;20222;-82
2024/04/13 08:42:43;;;;;;;12.70;7.50;;;;;;;;;;5422612;26;20275;-82
2024/04/13 08:45:48;;;;;;;13.07;7.60;;;;;;;;;;5423366;26;20227;-81
2024/04/13 08:48:53;;;;;;;12.97;6.43;;;;;;;;;;5421664;26;20261;-81
2024/04/13 08:51:57;;;;;;;9.70;6.83;;;;;;;;;;5421410;26;20577;-82
2024/04/13 08:55:03;;;;;;;7.97;5.70;;;;;;;;;;5422256;26;20210;-82
2024/04/13 08:58:07;;;;;;;6.28;4.20;;;;;;;;;;5421171;26;20617;-82
2024/04/13 09:01:14;;;;;;;7.22;6.13;;;;;;;;;;5422854;26;20555;-82
2024/04/13 09:04:18;;;;;;;16.50;6.13;;;;;;;;;;5420933;26;20644;-82
2024/04/13 09:07:22;;;;;;;10.10;6.45;;;;;;;;;;5421738;26;20287;-82
2024/04/13 09:10:26;;;;;;;10.55;5.45;;;;;;;;;;5422720;26;20300;-82
2024/04/13 09:13:34;;;;;;;9.27;5.25;;;;;;;;;;5422517;26;20224;-82
2024/04/13 09:16:40;;;;;;;8.57;6.03;;;;;;;;;;5422042;26;20289;-82
2024/04/13 09:19:44;;;;;;;10.45;6.05;;;;;;;;;;5422435;26;20270;-82
2024/04/13 09:22:49;;;;;;;11.35;5.43;;;;;;;;;;5421559;26;20219;-82
2024/04/13 09:26:01;;;;;;;6.50;4.68;;;;;;;;;;5421744;26;20564;-82
2024/04/13 09:29:07;;;;;;;6.50;4.75;;;;;;;;;;5421851;26;20230;-82
2024/04/13 09:32:24;;;;;;;22.40;5.43;;;;;;;;;;5420286;26;20242;-82
2024/04/13 09:35:30;;;;;;;10.30;5.28;;;;;;;;;;5420752;26;20232;-82
2024/04/13 09:38:34;;;;;;;7.43;5.10;;;;;;;;;;5421122;26;20720;-82
2024/04/13 09:41:38;;;;;;;8.05;5.28;;;;;;;;;;5420458;26;20280;-82
2024/04/13 09:44:43;;;;;;;8.93;5.20;;;;;;;;;;5422071;26;20222;-80
2024/04/13 09:47:47;;;;;;;11.25;6.10;;;;;;;;;;5423910;26;20244;-79
2024/04/13 09:50:52;;;;;;;11.05;5.47;;;;;;;;;;5421676;26;20226;-82
2024/04/13 09:53:55;;;;;;;7.38;5.25;;;;;;;;;;5421232;26;20565;-82
2024/04/13 09:57:00;;;;;;;7.65;5.00;;;;;;;;;;5419678;26;20294;-79
2024/04/13 10:00:07;;;;;;;7.13;4.88;;;;;;;;;;5421000;26;20222;-79
2024/04/13 10:03:17;;;;;;;9.27;5.40;;;;;;;;;;5420989;26;20252;-80
2024/04/13 10:06:22;;;;;;;11.85;5.75;;;;;;;;;;5419282;26;20212;-80
2024/04/13 10:09:30;;;;;;;13.30;5.55;;;;;;;;;;5420352;26;20762;-80
2024/04/13 10:12:38;;;;;;;12.20;5.85;;;;;;;;;;5420615;26;20261;-80
2024/04/13 10:15:44;;;;;;;8.35;5.75;;;;;;;;;;5419339;26;20707;-80
2024/04/13 10:18:48;;;;;;;10.45;5.70;;;;;;;;;;5421293;26;20624;-80
2024/04/13 10:21:57;;;;;;;10.57;6.00;;;;;;;;;;5421005;26;20223;-81
2024/04/13 10:25:04;;;;;;;10.73;6.30;;;;;;;;;;5420574;26;20218;-80
2024/04/13 10:28:10;;;;;;;7.72;5.47;;;;;;;;;;5379172;26;20771;-81
2024/04/13 10:31:18;;;;;;;8.70;5.85;;;;;;;;;;5419172;26;20215;-81
2024/04/13 10:34:26;;;;;;;10.90;5.85;;;;;;;;;;5420605;26;20261;-81
2024/04/13 10:37:35;;;;;;;11.52;6.47;;;;;;;;;;5420517;26;20273;-81
2024/04/13 10:40:40;;;;;;;12.18;5.97;;;;;;;;;;5420102;26;20273;-81
2024/04/13 10:43:44;;;;;;;8.07;5.72;;;;;;;;;;5420483;26;20222;-81
2024/04/13 10:46:49;;;;;;;7.78;5.88;;;;;;;;;;5418866;26;20278;-81
2024/04/13 10:49:54;;;;;;;9.85;7.32;;;;;;;;;;5419219;26;20218;-81
2024/04/13 10:52:59;;;;;;;7.07;5.97;;;;;;;;;;5419628;26;20563;-81
2024/04/13 10:56:07;;;;;;;9.23;5.88;;;;;;;;;;5420502;26;20234;-81
2024/04/13 10:59:12;;;;;;;10.35;6.68;;;;;;;;;;5418891;26;20282;-81
2024/04/13 11:02:16;;;;;;;12.77;7.00;;;;;;;;;;5419837;26;20230;-81
2024/04/13 11:05:21;;;;;;;10.90;7.00;;;;;;;;;;5421828;26;20222;-84
2024/04/13 11:08:25;;;;;;;11.15;6.28;;;;;;;;;;5398055;26;20277;-86
2024/04/13 11:11:30;;;;;;;8.43;5.50;;;;;;;;;;5417598;26;20214;-85
2024/04/13 11:14:34;;;;;;;12.20;6.55;;;;;;;;;;5419322;26;20277;-86
2024/04/13 11:17:39;;;;;;;10.40;7.07;;;;;;;;;;5419085;26;20285;-85
2024/04/13 11:20:48;;;;;;;15.45;6.65;;;;;;;;;;5418217;26;20555;-86
2024/04/13 11:23:53;;;;;;;9.57;6.60;;;;;;;;;;5418990;26;20689;-86
2024/04/13 11:26:58;;;;;;;11.07;6.60;;;;;;;;;;5419226;26;20277;-85
2024/04/13 11:30:03;;;;;;;10.82;6.70;;;;;;;;;;5421685;26;20568;-85
2024/04/13 11:33:13;;;;;;;9.65;5.65;;;;;;;;;;5421749;26;20277;-86
2024/04/13 11:36:20;;;;;;;12.20;5.97;;;;;;;;;;5420584;26;20222;-85
2024/04/13 11:39:25;;;;;;;9.50;5.53;;;;;;;;;;5421991;26;20222;-85
2024/04/13 11:42:29;;;;;;;9.68;6.45;;;;;;;;;;5420347;26;20715;-85
2024/04/13 11:45:33;;;;;;;8.63;5.80;;;;;;;;;;5421814;26;20218;-86
2024/04/13 11:48:37;;;;;;;8.73;5.93;;;;;;;;;;5421929;26;20259;-86
2024/04/13 11:51:41;;;;;;;18.88;6.28;;;;;;;;;;5422138;26;20214;-86
2024/04/13 11:54:47;;;;;;;7.95;6.30;;;;;;;;;;5422745;26;20222;-86
2024/04/13 11:57:51;;;;;;;6.47;5.22;;;;;;;;;;5421706;26;20273;-87
2024/04/13 12:00:54;;;;;;;9.20;4.90;;;;;;;;;;5421507;26;20261;-86
2024/04/13 12:03:59;;;;;;;14.88;5.43;;;;;;;;;;5420714;26;20278;-83
2024/04/13 12:07:04;;;;;;;6.60;4.93;;;;;;;;;;5422034;26;20277;-84
2024/04/13 12:10:08;;;;;;;6.90;5.35;;;;;;;;;;5419179;26;20285;-84
2024/04/13 12:13:12;;;;;;;8.55;5.50;;;;;;;;;;5419379;26;20249;-84
2024/04/13 12:16:16;;;;;;;7.25;5.05;;;;;;;;;;5421466;26;20273;-84
2024/04/13 12:19:21;;;;;;;8.60;5.70;;;;;;;;;;5422478;26;20273;-84
2024/04/13 12:22:25;;;;;;;4.95;4.40;;;;;;;;;;5422497;26;20302;-84
2024/04/13 12:25:29;;;;;;;8.52;5.28;;;;;;;;;;5422026;26;20218;-84
2024/04/13 12:28:34;;;;;;;9.38;5.85;;;;;;;;;;5421725;26;20742;-84
2024/04/13 12:31:38;;;;;;;8.00;5.47;;;;;;;;;;5421492;26;20222;-84
2024/04/13 12:34:42;;;;;;;6.40;4.88;;;;;;;;;;5421271;26;20282;-84
2024/04/13 12:37:49;;;;;;;7.63;4.18;;;;;;;;;;5420951;26;20277;-84
2024/04/13 12:40:54;;;;;;;9.48;4.32;;;;;;;;;;5421385;26;20238;-83
2024/04/13 12:43:58;;;;;;;9.48;4.90;;;;;;;;;;5421372;26;20262;-84
2024/04/13 12:47:02;;;;;;;8.90;5.93;;;;;;;;;;5401681;26;20278;-84
2024/04/13 12:50:07;;;;;;;9.68;6.03;;;;;;;;;;5424009;26;20554;-84
2024/04/13 12:53:11;;;;;;;10.80;5.00;;;;;;;;;;5422526;26;20218;-84
2024/04/13 12:56:15;;;;;;;5.10;4.57;;;;;;;;;;5400726;26;20261;-84
2024/04/13 12:59:19;;;;;;;7.05;3.35;;;;;;;;;;5422531;26;20223;-84
2024/04/13 13:02:24;;;;;;;7.18;4.47;;;;;;;;;;5423871;26;20230;-84
2024/04/13 13:05:29;;;;;;;11.73;4.97;;;;;;;;;;5424320;26;20223;-84
2024/04/13 13:08:34;;;;;;;7.30;4.30;;;;;;;;;;5401081;26;20214;-83
2024/04/13 13:11:38;;;;;;;8.90;4.13;;;;;;;;;;5421740;26;20631;-84
2024/04/13 13:14:42;;;;;;;7.60;4.20;;;;;;;;;;5423365;26;20222;-84
2024/04/13 13:17:46;;;;;;;5.97;3.78;;;;;;;;;;5381646;26;20286;-84
2024/04/13 13:20:51;;;;;;;7.68;4.00;;;;;;;;;;5402225;26;20218;-83
2024/04/13 13:23:55;;;;;;;7.57;3.92;;;;;;;;;;5422881;26;20277;-83
2024/04/13 13:27:01;;;;;;;5.00;3.10;;;;;;;;;;5401108;26;20277;-84
2024/04/13 13:30:06;;;;;;;7.38;2.97;;;;;;;;;;5422389;26;20330;-84
2024/04/13 13:33:09;;;;;;;7.57;3.10;;;;;;;;;;5421960;26;20273;-85
2024/04/13 13:36:14;;;;;;;6.57;4.00;;;;;;;;;;5422797;26;20229;-84
2024/04/13 13:39:19;;;;;;;8.63;3.92;;;;;;;;;;5422187;26;20221;-85
2024/04/13 13:42:23;;;;;;;14.90;4.07;;;;;;;;;;5421630;26;20279;-85
2024/04/13 13:45:28;;;;;;;6.35;2.70;;;;;;;;;;5422235;26;20274;-85
2024/04/13 13:48:32;;;;;;;13.13;3.85;;;;;;;;;;5421985;26;20294;-85
2024/04/13 13:51:36;;;;;;;6.88;3.90;;;;;;;;;;5424131;26;20229;-83
2024/04/13 13:54:40;;;;;;;6.30;2.85;;;;;;;;;;5421470;26;20227;-86
2024/04/13 13:57:47;;;;;;;6.07;3.65;;;;;;;;;;5419892;26;20303;-86
2024/04/13 14:01:30;;;;;;;7.78;3.67;;;;;;;;;;5421464;26;20214;-84
2024/04/13 14:04:36;;;;;;;9.57;3.70;;;;;;;;;;5398155;26;20630;-85
2024/04/13 14:07:53;;;;;;;6.07;3.40;;;;;;;;;;5379653;26;20280;-85
2024/04/13 14:11:05;;;;;;;7.05;4.10;;;;;;;;;;5427055;26;20279;-85
2024/04/13 14:14:36;;;;;;;6.97;3.70;;;;;;;;;;5426165;26;20200;-84
2024/04/13 14:17:42;;;;;;;4.95;2.97;;;;;;;;;;5405150;26;20302;-84
2024/04/13 14:20:46;;;;;;;13.43;3.30;;;;;;;;;;5425374;26;20280;-85
2024/04/13 14:23:52;;;;;;;11.95;3.67;;;;;;;;;;5427311;26;20197;-84
2024/04/13 14:26:57;;;;;;;6.68;3.17;;;;;;;;;;5427261;26;20636;-84
2024/04/13 14:30:05;;;;;;;6.78;4.25;;;;;;;;;;5404717;26;20209;-84
2024/04/13 14:33:11;;;;;;;11.55;3.97;;;;;;;;;;5382850;26;20272;-84
2024/04/13 14:36:16;;;;;;;7.55;4.28;;;;;;;;;;5424963;26;20567;-84
2024/04/13 14:39:23;;;;;;;7.88;3.67;;;;;;;;;;5354546;26;20296;-84
2024/04/13 14:46:52;;;;;;;8.85;3.50;;;;;;;;;;5422448;26;20800;-83
2024/04/13 14:49:56;;;;;;;6.05;3.83;;;;;;;;;;5422740;26;20225;-83
2024/04/13 14:53:00;;;;;;;5.38;3.28;;;;;;;;;;5423345;26;20275;-84
2024/04/13 14:56:05;;;;;;;8.15;3.55;;;;;;;;;;5423549;26;20290;-83
2024/04/13 14:59:09;;;;;;;7.03;3.90;;;;;;;;;;5401815;26;20233;-83
2024/04/13 15:02:14;;;;;;;8.55;3.55;;;;;;;;;;5401711;26;20229;-83
2024/04/13 15:05:18;;;;;;;7.00;3.47;;;;;;;;;;5421955;26;20722;-83
2024/04/13 15:08:23;;;;;;;7.63;3.80;;;;;;;;;;5401258;26;20273;-83
2024/04/13 15:11:27;;;;;;;9.15;3.72;;;;;;;;;;5401568;26;20263;-83
2024/04/13 15:14:33;;;;;;;4.65;4.03;;;;;;;;;;5401564;26;20232;-83
2024/04/13 15:17:37;;;;;;;5.47;3.28;;;;;;;;;;5422315;26;20280;-84
2024/04/13 15:20:41;;;;;;;8.32;3.47;;;;;;;;;;5422294;26;20221;-86
2024/04/13 15:23:46;;;;;;;9.05;3.25;;;;;;;;;;5400973;26;20225;-83
2024/04/13 15:26:50;;;;;;;10.63;3.25;;;;;;;;;;5425318;26;20633;-84
2024/04/13 15:29:54;;;;;;;8.45;3.33;;;;;;;;;;5404636;26;20282;-84
2024/04/13 15:32:59;;;;;;;4.10;3.15;;;;;;;;;;5425129;26;20274;-83
2024/04/13 15:36:03;;;;;;;7.22;2.88;;;;;;;;;;5404357;26;20228;-83
2024/04/13 15:39:08;;;;;;;6.07;2.60;;;;;;;;;;5437890;26;20258;-84
2024/04/13 15:42:12;;;;;;;7.03;4.22;;;;;;;;;;5435125;26;20285;-84
2024/04/13 15:45:17;;;;;;;6.07;2.63;;;;;;;;;;5424307;26;20223;-84
2024/04/13 15:48:22;;;;;;;7.60;2.60;;;;;;;;;;5425324;26;20294;-84
2024/04/13 15:51:27;;;;;;;6.15;2.55;;;;;;;;;;5425458;26;20713;-83
2024/04/13 15:54:31;;;;;;;6.70;2.95;;;;;;;;;;5424958;26;20217;-84
2024/04/13 15:57:36;;;;;;;5.10;2.85;;;;;;;;;;5403370;26;20294;-84
2024/04/13 16:00:41;;;;;;;4.78;2.50;;;;;;;;;;5427279;26;20570;-83
2024/04/13 16:03:45;;;;;;;6.80;3.17;;;;;;;;;;5429281;26;20267;-83
2024/04/13 16:06:53;;;;;;;6.05;2.55;;;;;;;;;;5428596;26;20274;-83
2024/04/13 16:09:58;;;;;;;7.40;3.00;;;;;;;;;;5428372;26;20260;-83
2024/04/13 16:13:02;;;;;;;5.72;2.72;;;;;;;;;;5428927;26;20269;-83
2024/04/13 16:16:06;;;;;;;4.50;2.58;;;;;;;;;;5410498;26;20231;-84
2024/04/13 16:19:11;;;;;;;10.45;2.88;;;;;;;;;;5431533;26;20252;-83
2024/04/13 16:22:15;;;;;;;5.32;2.55;;;;;;;;;;5409597;26;20265;-83
2024/04/13 16:25:19;;;;;;;6.32;2.80;;;;;;;;;;5431559;26;20257;-84
2024/04/13 16:28:25;;;;;;;9.93;2.53;;;;;;;;;;5431489;26;20280;-83
2024/04/13 16:31:29;;;;;;;4.20;2.33;;;;;;;;;;5432285;26;20288;-84
2024/04/13 16:34:33;;;;;;;7.20;2.85;;;;;;;;;;5390177;26;20749;-83
2024/04/13 16:37:38;;;;;;;5.07;2.30;;;;;;;;;;5429717;26;20281;-83
2024/04/13 16:40:43;;;;;;;8.77;2.20;;;;;;;;;;5429704;26;20205;-83
2024/04/13 16:43:47;;;;;;;3.42;2.22;;;;;;;;;;5428980;26;20260;-83
2024/04/13 16:46:52;;;;;;;5.17;2.37;;;;;;;;;;5429711;26;20264;-84
2024/04/13 16:49:58;;;;;;;5.70;2.00;;;;;;;;;;5429020;26;20280;-83
2024/04/13 16:53:02;;;;;;;19.20;6.60;;;;;;;;;;5430118;26;20260;-83
2024/04/13 16:56:07;;;;;;;18.90;8.67;;;;;;;;;;5429452;26;20209;-83
2024/04/13 16:59:11;;;;;;;12.33;3.57;;;;;;;;;;5429333;26;20273;-83
2024/04/13 17:02:15;;;;;;;6.80;4.20;;;;;;;;;;5427987;26;20259;-83
2024/04/13 17:05:20;;;;;;;9.47;3.03;;;;;;;;;;5427223;26;20266;-83
2024/04/13 17:08:25;;;;;;;8.17;3.00;;;;;;;;;;5427879;26;20308;-84
2024/04/13 17:11:29;;;;;;;9.03;2.67;;;;;;;;;;5429031;26;20213;-83
2024/04/13 17:14:34;;;;;;;7.87;3.33;;;;;;;;;;5429830;26;20207;-83
2024/04/13 17:17:38;;;;;;;6.57;2.00;;;;;;;;;;5426054;26;20293;-84
2024/04/13 17:20:52;;;;;;;5.17;2.57;;;;;;;;;;5426541;26;20693;-83
2024/04/13 17:23:56;;;;;;;5.80;2.80;;;;;;;;;;5425471;26;20225;-83
2024/04/13 17:27:00;;;;;;;7.07;2.57;;;;;;;;;;5426713;26;20270;-83
2024/04/13 17:30:06;;;;;;;6.80;2.90;;;;;;;;;;5424763;26;20774;-82
2024/04/13 17:33:10;;;;;;;7.17;3.03;;;;;;;;;;5425553;26;20267;-83
2024/04/13 17:36:16;;;;;;;8.53;3.47;;;;;;;;;;5425516;26;20647;-83
2024/04/13 17:39:22;;;;;;;3.10;1.90;;;;;;;;;;5424328;26;20228;-84
2024/04/13 17:42:27;;;;;;;67.30;4.53;;;;;;;;;;5426373;26;20275;-83
2024/04/13 17:45:31;;;;;;;259.43;11.63;;;;;;;;;;5424856;26;20282;-83
2024/04/13 17:48:35;;;;;;;14.30;2.80;;;;;;;;;;5422864;26;20269;-83
2024/04/13 17:51:40;;;;;;;3.13;1.80;;;;;;;;;;5424321;26;20256;-83
2024/04/13 17:54:44;;;;;;;6.40;1.90;;;;;;;;;;5402890;26;20624;-83
2024/04/13 17:57:49;;;;;;;5.63;1.80;;;;;;;;;;5423923;26;20293;-83
2024/04/13 18:00:53;;;;;;;6.60;1.90;;;;;;;;;;5424273;26;20215;-83
2024/04/13 18:03:59;;;;;;;5.90;2.03;;;;;;;;;;5423357;26;20785;-84
2024/04/13 18:07:05;;;;;;;13.40;2.63;;;;;;;;;;5424967;26;20289;-84
2024/04/13 18:10:09;;;;;;;7.37;2.10;;;;;;;;;;5424160;26;20661;-83
2024/04/13 18:13:14;;;;;;;4.63;2.20;;;;;;;;;;5423413;26;20631;-83
2024/04/13 18:16:18;;;;;;;5.30;2.20;;;;;;;;;;5422212;26;20730;-83
2024/04/13 18:19:24;;;;;;;4.77;2.23;;;;;;;;;;5423517;26;20290;-83
2024/04/13 18:22:29;;;;;;;6.20;2.23;;;;;;;;;;5423472;26;20222;-83
2024/04/13 18:25:33;;;;;;;4.73;2.10;;;;;;;;;;5423476;26;20226;-83